createdAt,value
2022-12-18T00:01:34.293Z,34.42
2022-12-18T00:04:03.187Z,33.92
2022-12-18T00:06:30.822Z,32.67
2022-12-18T00:08:59.149Z,30.88
2022-12-18T00:11:29.235Z,31.70
2022-12-18T00:13:57.393Z,31.35
2022-12-18T00:16:26.491Z,28.58
2022-12-18T00:18:55.096Z,29.50
2022-12-18T00:21:22.720Z,33.35
2022-12-18T00:23:50.810Z,31.65
2022-12-18T00:26:23.822Z,32.05
2022-12-18T00:28:51.272Z,30.33
2022-12-18T00:31:21.187Z,33.95
2022-12-18T00:33:49.083Z,30.67
2022-12-18T00:36:24.120Z,35.88
2022-12-18T00:38:50.921Z,32.60
2022-12-18T00:41:38.791Z,33.58
2022-12-18T00:44:06.495Z,32.10
2022-12-18T00:46:33.400Z,35.70
2022-12-18T00:49:00.264Z,32.83
2022-12-18T00:51:27.637Z,32.80
2022-12-18T00:53:54.530Z,32.85
2022-12-18T00:56:21.148Z,35.28
2022-12-18T00:58:47.724Z,35.38
2022-12-18T01:01:14.568Z,34.58
2022-12-18T01:03:42.128Z,34.70
2022-12-18T01:06:10.859Z,32.85
2022-12-18T01:08:37.484Z,30.50
2022-12-18T01:11:19.397Z,28.00
2022-12-18T01:13:46.125Z,29.92
2022-12-18T01:16:14.024Z,29.70
2022-12-18T01:18:41.125Z,25.52
2022-12-18T01:21:17.027Z,27.02
2022-12-18T01:23:43.651Z,27.15
2022-12-18T01:26:13.621Z,27.95
2022-12-18T01:28:41.178Z,25.75
2022-12-18T01:31:34.627Z,25.77
2022-12-18T01:34:02.505Z,25.52
2022-12-18T01:36:32.156Z,23.75
2022-12-18T01:39:01.895Z,23.80
2022-12-18T01:41:49.351Z,21.73
2022-12-18T01:45:13.019Z,22.52
2022-12-18T01:47:52.911Z,22.10
2022-12-18T01:50:43.917Z,20.60
2022-12-18T01:53:19.885Z,20.92
2022-12-18T01:55:51.436Z,19.42
2022-12-18T01:58:19.841Z,21.30
2022-12-18T02:00:46.626Z,20.95
2022-12-18T02:03:13.833Z,20.45
2022-12-18T02:06:10.800Z,22.90
2022-12-18T02:08:49.452Z,20.73
2022-12-18T02:12:11.473Z,19.90
2022-12-18T02:15:01.048Z,18.92
2022-12-18T02:17:52.586Z,18.48
2022-12-18T02:20:26.357Z,19.10
2022-12-18T02:23:48.257Z,17.08
2022-12-18T02:26:34.412Z,17.80
2022-12-18T02:29:11.456Z,21.85
2022-12-18T02:31:44.339Z,19.13
2022-12-18T02:34:13.398Z,18.55
2022-12-18T02:36:43.505Z,20.95
2022-12-18T02:39:12.768Z,20.80
2022-12-18T02:41:40.540Z,17.85
2022-12-18T02:44:14.821Z,23.15
2022-12-18T02:46:49.801Z,35.58
2022-12-18T02:49:42.024Z,33.63
2022-12-18T02:52:42.994Z,35.35
2022-12-18T02:55:33.976Z,31.65
2022-12-18T02:58:47.884Z,28.95
2022-12-18T03:01:22.688Z,25.58
2022-12-18T03:03:56.654Z,25.27
2022-12-18T03:06:51.225Z,26.10
2022-12-18T03:09:27.101Z,27.27
2022-12-18T03:12:16.720Z,27.08
2022-12-18T03:14:46.432Z,26.73
2022-12-18T03:17:18.653Z,27.45
2022-12-18T03:19:48.662Z,27.85
2022-12-18T03:22:17.753Z,28.90
2022-12-18T03:24:47.272Z,28.08
2022-12-18T03:27:18.557Z,26.73
2022-12-18T03:29:50.032Z,27.00
2022-12-18T03:32:28.497Z,25.63
2022-12-18T03:34:58.581Z,25.67
2022-12-18T03:37:25.329Z,24.80
2022-12-18T03:39:52.067Z,24.40
2022-12-18T03:42:33.618Z,27.17
2022-12-18T03:45:14.964Z,25.65
2022-12-18T03:48:18.949Z,25.70
2022-12-18T03:51:22.833Z,21.42
2022-12-18T03:53:59.531Z,23.10
2022-12-18T03:56:34.505Z,22.52
2022-12-18T03:59:05.675Z,23.48
2022-12-18T04:01:39.095Z,24.42
2022-12-18T04:04:08.112Z,26.42
2022-12-18T04:06:35.034Z,23.92
2022-12-18T04:09:01.841Z,28.05
2022-12-18T04:11:28.566Z,26.52
2022-12-18T04:13:59.223Z,26.40
2022-12-18T04:16:28.320Z,25.75
2022-12-18T04:18:55.312Z,26.60
2022-12-18T04:21:22.409Z,26.80
2022-12-18T04:23:49.041Z,26.52
2022-12-18T04:26:15.692Z,26.30
2022-12-18T04:28:42.245Z,27.27
2022-12-18T04:31:09.203Z,24.40
2022-12-18T04:33:36.008Z,22.90
2022-12-18T04:36:02.733Z,25.05
2022-12-18T04:38:29.316Z,22.98
2022-12-18T04:40:55.944Z,23.45
2022-12-18T04:43:22.661Z,24.30
2022-12-18T04:45:49.300Z,24.95
2022-12-18T04:48:15.940Z,26.80
2022-12-18T04:50:42.571Z,24.55
2022-12-18T04:53:09.180Z,25.88
2022-12-18T04:55:36.728Z,27.33
2022-12-18T04:58:03.301Z,24.35
2022-12-18T05:00:29.887Z,26.60
2022-12-18T05:02:56.664Z,25.42
2022-12-18T05:05:23.400Z,26.40
2022-12-18T05:07:50.102Z,25.50
2022-12-18T05:10:16.724Z,25.98
2022-12-18T05:13:01.616Z,24.60
2022-12-18T05:15:32.701Z,25.90
2022-12-18T05:17:59.904Z,25.75
2022-12-18T05:20:28.024Z,26.35
2022-12-18T05:22:55.371Z,29.45
2022-12-18T05:25:22.743Z,27.92
2022-12-18T05:27:49.664Z,30.38
2022-12-18T05:30:17.266Z,29.23
2022-12-18T05:32:44.124Z,30.70
2022-12-18T05:35:11.943Z,27.77
2022-12-18T05:37:42.973Z,28.75
2022-12-18T05:40:10.998Z,29.90
2022-12-18T05:42:37.708Z,30.92
2022-12-18T05:45:05.437Z,31.60
2022-12-18T05:47:32.033Z,31.88
2022-12-18T05:49:58.688Z,30.27
2022-12-18T05:52:25.614Z,30.73
2022-12-18T05:54:52.260Z,40.58
2022-12-18T05:57:18.859Z,32.85
2022-12-18T05:59:45.705Z,31.20
2022-12-18T06:02:12.464Z,29.25
2022-12-18T06:04:39.183Z,26.33
2022-12-18T06:07:05.829Z,28.95
2022-12-18T06:09:33.024Z,34.53
2022-12-18T06:11:59.827Z,65.40
2022-12-18T06:14:26.624Z,40.38
2022-12-18T06:16:53.401Z,28.83
2022-12-18T06:19:20.067Z,25.85
2022-12-18T06:21:48.003Z,25.90
2022-12-18T06:24:14.612Z,26.63
2022-12-18T06:26:41.377Z,26.55
2022-12-18T06:29:08.033Z,29.20
2022-12-18T06:31:34.772Z,28.45
2022-12-18T06:34:04.499Z,30.17
2022-12-18T06:36:31.631Z,27.25
2022-12-18T06:38:58.603Z,24.90
2022-12-18T06:41:25.324Z,27.77
2022-12-18T06:43:55.581Z,30.88
2022-12-18T06:46:24.849Z,24.65
2022-12-18T06:48:51.544Z,20.42
2022-12-18T06:51:22.705Z,23.05
2022-12-18T06:53:49.437Z,22.30
2022-12-18T06:56:16.280Z,21.08
2022-12-18T06:58:43.111Z,23.70
2022-12-18T07:01:12.182Z,22.40
2022-12-18T07:03:43.387Z,21.98
2022-12-18T07:06:18.678Z,22.42
2022-12-18T07:08:46.212Z,21.10
2022-12-18T07:11:13.192Z,23.30
2022-12-18T07:13:40.165Z,22.70
2022-12-18T07:16:24.805Z,23.65
2022-12-18T07:18:52.131Z,24.60
2022-12-18T07:21:20.548Z,23.90
2022-12-18T07:23:49.095Z,23.02
2022-12-18T07:26:18.391Z,23.23
2022-12-18T07:28:45.079Z,22.63
2022-12-18T07:31:17.937Z,25.48
2022-12-18T07:33:45.276Z,25.88
2022-12-18T07:36:12.224Z,24.42
2022-12-18T07:38:39.146Z,26.05
2022-12-18T07:41:08.373Z,28.50
2022-12-18T07:43:35.939Z,28.77
2022-12-18T07:46:03.147Z,27.17
2022-12-18T07:48:30.184Z,30.48
2022-12-18T07:51:05.260Z,26.73
2022-12-18T07:53:32.677Z,29.63
2022-12-18T07:56:26.027Z,27.58
2022-12-18T07:58:47.463Z,26.67
2022-12-18T08:01:15.184Z,25.65
2022-12-18T08:03:42.304Z,23.65
2022-12-18T08:06:10.560Z,24.13
2022-12-18T08:08:37.901Z,24.55
2022-12-18T08:11:04.663Z,23.40
2022-12-18T08:13:31.266Z,24.10
2022-12-18T08:16:08.214Z,23.52
2022-12-18T08:18:36.351Z,21.65
2022-12-18T08:21:14.308Z,21.80
2022-12-18T08:23:43.394Z,22.95
2022-12-18T08:26:11.480Z,23.00
2022-12-18T08:28:38.432Z,27.60
2022-12-18T08:31:05.657Z,24.67
2022-12-18T08:33:33.527Z,22.50
2022-12-18T08:36:00.953Z,23.42
2022-12-18T08:38:27.708Z,21.75
2022-12-18T08:41:05.841Z,22.73
2022-12-18T08:43:51.229Z,22.27
2022-12-18T08:46:22.261Z,24.45
2022-12-18T08:48:51.006Z,26.65
2022-12-18T08:51:18.235Z,25.30
2022-12-18T08:53:48.052Z,26.42
2022-12-18T08:56:15.626Z,25.88
2022-12-18T08:58:42.788Z,31.60
2022-12-18T09:01:11.632Z,36.63
2022-12-18T09:03:39.352Z,28.10
2022-12-18T09:06:07.040Z,29.75
2022-12-18T09:08:33.623Z,30.45
2022-12-18T09:11:00.189Z,35.13
2022-12-18T09:13:26.880Z,30.45
2022-12-18T09:15:55.098Z,35.97
2022-12-18T09:18:23.824Z,28.00
2022-12-18T09:20:52.828Z,30.10
2022-12-18T09:23:19.423Z,25.27
2022-12-18T09:25:45.985Z,26.20
2022-12-18T09:28:15.526Z,26.52
2022-12-18T09:30:45.223Z,24.48
2022-12-18T09:33:12.068Z,22.75
2022-12-18T09:35:40.154Z,25.42
2022-12-18T09:38:07.074Z,22.25
2022-12-18T09:40:42.785Z,24.15
2022-12-18T09:43:20.498Z,25.13
2022-12-18T09:45:56.214Z,27.40
2022-12-18T09:48:53.788Z,25.00
2022-12-18T09:51:29.721Z,22.45
2022-12-18T09:54:06.936Z,23.42
2022-12-18T09:56:39.692Z,24.85
2022-12-18T09:59:06.560Z,20.98
2022-12-18T10:01:43.128Z,21.38
2022-12-18T10:04:11.330Z,20.15
2022-12-18T10:06:47.245Z,21.65
2022-12-18T10:09:33.097Z,21.05
2022-12-18T10:12:21.050Z,23.48
2022-12-18T10:15:11.764Z,21.40
2022-12-18T10:18:17.417Z,29.40
2022-12-18T10:20:51.226Z,22.75
2022-12-18T10:23:37.046Z,23.90
2022-12-18T10:26:10.885Z,24.73
2022-12-18T10:28:40.454Z,20.90
2022-12-18T10:31:15.339Z,20.83
2022-12-18T10:33:42.258Z,28.48
2022-12-18T10:36:08.941Z,26.92
2022-12-18T10:38:35.799Z,23.25
2022-12-18T10:41:03.498Z,25.08
2022-12-18T10:43:32.575Z,21.17
2022-12-18T10:46:07.113Z,21.70
2022-12-18T10:48:37.226Z,21.45
2022-12-18T10:51:12.644Z,19.33
2022-12-18T10:53:42.899Z,19.85
2022-12-18T10:56:09.924Z,19.00
2022-12-18T10:58:39.072Z,19.25
2022-12-18T11:01:23.643Z,19.42
2022-12-18T11:04:17.246Z,17.77
2022-12-18T11:06:58.748Z,20.23
2022-12-18T11:09:30.434Z,20.70
2022-12-18T11:12:00.480Z,19.35
2022-12-18T11:14:31.769Z,19.08
2022-12-18T11:17:24.823Z,18.40
2022-12-18T11:19:54.209Z,19.02
2022-12-18T11:22:36.015Z,20.52
2022-12-18T11:25:35.963Z,21.02
2022-12-18T11:28:25.983Z,21.42
2022-12-18T11:31:13.554Z,21.17
2022-12-18T11:34:04.843Z,20.40
2022-12-18T11:36:44.348Z,21.15
2022-12-18T11:39:19.237Z,19.58
2022-12-18T11:42:10.041Z,19.08
2022-12-18T11:45:12.154Z,20.20
2022-12-18T11:47:45.368Z,20.97
2022-12-18T11:50:17.070Z,20.35
2022-12-18T11:52:43.718Z,21.05
2022-12-18T11:55:17.221Z,21.85
2022-12-18T11:57:55.922Z,20.67
2022-12-18T12:00:24.267Z,19.77
2022-12-18T12:03:12.456Z,20.77
2022-12-18T12:06:09.131Z,20.38
2022-12-18T12:08:55.144Z,20.05
2022-12-18T12:12:15.233Z,19.45
2022-12-18T12:14:53.718Z,21.45
2022-12-18T12:17:46.431Z,24.05
2022-12-18T12:20:22.825Z,23.75
2022-12-18T12:23:26.062Z,20.90
2022-12-18T12:26:24.235Z,22.80
2022-12-18T12:29:30.784Z,25.38
2022-12-18T12:32:37.839Z,43.53
2022-12-18T12:35:27.733Z,53.85
2022-12-18T12:38:28.225Z,38.45
2022-12-18T12:41:05.082Z,36.50
2022-12-18T12:43:50.517Z,55.45
2022-12-18T12:46:20.732Z,36.03
2022-12-18T12:49:20.357Z,31.20
2022-12-18T12:51:51.141Z,34.97
2022-12-18T12:54:22.350Z,48.28
2022-12-18T12:57:27.529Z,26.88
2022-12-18T13:00:10.104Z,34.00
2022-12-18T13:03:31.213Z,26.65
2022-12-18T13:06:04.361Z,27.58
2022-12-18T13:08:52.304Z,27.10
2022-12-18T13:12:07.629Z,25.13
2022-12-18T13:14:40.657Z,24.67
2022-12-18T13:17:30.491Z,25.48
2022-12-18T13:20:12.898Z,23.83
2022-12-18T13:22:49.650Z,25.00
2022-12-18T13:25:42.736Z,26.55
2022-12-18T13:28:15.194Z,28.02
2022-12-18T13:31:02.947Z,27.35
2022-12-18T13:34:23.922Z,24.27
2022-12-18T13:36:35.278Z,23.58
2022-12-18T13:39:35.892Z,27.08
2022-12-18T13:42:56.726Z,27.60
2022-12-18T13:46:19.411Z,27.30
2022-12-18T13:49:32.617Z,25.08
2022-12-18T13:51:59.270Z,27.45
2022-12-18T13:54:54.494Z,34.92
2022-12-18T13:57:34.010Z,32.42
2022-12-18T14:00:29.461Z,31.13
2022-12-18T14:02:57.430Z,26.90
2022-12-18T14:05:36.132Z,29.75
2022-12-18T14:08:14.666Z,27.48
2022-12-18T14:10:48.379Z,33.20
2022-12-18T14:13:37.880Z,32.08
2022-12-18T14:16:06.729Z,64.97
2022-12-18T14:18:45.751Z,33.50
2022-12-18T14:21:22.559Z,33.47
2022-12-18T14:23:49.761Z,34.95
2022-12-18T14:26:32.357Z,32.30
2022-12-18T14:31:29.372Z,33.85
2022-12-18T14:33:56.377Z,34.17
2022-12-18T14:36:29.100Z,48.78
2022-12-18T14:38:57.649Z,33.50
2022-12-18T14:41:25.473Z,32.72
2022-12-18T14:43:54.015Z,30.90
2022-12-18T14:46:34.749Z,32.30
2022-12-18T14:49:19.169Z,33.15
2022-12-18T14:52:09.305Z,34.30
2022-12-18T14:54:38.486Z,33.53
2022-12-18T14:57:27.403Z,34.38
2022-12-18T14:59:54.061Z,45.17
2022-12-18T15:02:29.077Z,43.28
2022-12-18T15:05:17.557Z,39.60
2022-12-18T15:07:51.009Z,107.22
2022-12-18T15:10:29.506Z,46.33
2022-12-18T15:13:23.432Z,28.48
2022-12-18T15:15:50.688Z,34.10
2022-12-18T15:18:21.101Z,30.17
2022-12-18T15:20:57.655Z,33.13
2022-12-18T15:23:47.111Z,29.33
2022-12-18T15:26:16.308Z,34.60
2022-12-18T15:28:53.468Z,34.63
2022-12-18T15:31:36.056Z,28.95
2022-12-18T15:36:42.555Z,28.10
2022-12-18T15:39:13.433Z,27.70
2022-12-18T15:41:40.405Z,30.17
2022-12-18T15:44:24.455Z,30.20
2022-12-18T15:46:51.067Z,28.25
2022-12-18T15:49:17.633Z,28.38
2022-12-18T15:51:44.566Z,29.70
2022-12-18T15:54:17.114Z,29.38
2022-12-18T15:57:02.664Z,29.10
2022-12-18T15:59:29.467Z,30.15
2022-12-18T16:01:57.529Z,30.70
2022-12-18T16:04:25.727Z,27.55
2022-12-18T16:07:14.289Z,30.90
2022-12-18T16:09:41.779Z,40.65
2022-12-18T16:12:17.358Z,60.13
2022-12-18T16:14:44.279Z,32.15
2022-12-18T16:17:12.824Z,33.92
2022-12-18T16:19:39.666Z,35.67
2022-12-18T16:22:06.682Z,36.17
2022-12-18T16:24:34.587Z,47.70
2022-12-18T16:27:01.835Z,36.60
2022-12-18T16:29:30.374Z,42.58
2022-12-18T16:31:59.482Z,43.35
2022-12-18T16:34:32.091Z,42.83
2022-12-18T16:37:05.483Z,65.47
2022-12-18T16:39:36.429Z,37.33
2022-12-18T16:42:08.170Z,34.03
2022-12-18T16:44:35.166Z,35.03
2022-12-18T16:47:03.442Z,34.42
2022-12-18T16:49:30.608Z,31.27
2022-12-18T16:52:00.952Z,30.75
2022-12-18T16:54:30.507Z,32.55
2022-12-18T16:56:58.717Z,34.38
2022-12-18T16:59:26.815Z,39.25
2022-12-18T17:01:55.788Z,31.52
2022-12-18T17:04:23.013Z,36.95
2022-12-18T17:06:51.945Z,33.42
2022-12-18T17:09:25.429Z,29.80
2022-12-18T17:11:53.575Z,29.45
2022-12-18T17:14:26.554Z,32.97
2022-12-18T17:17:20.483Z,32.92
2022-12-18T17:20:03.540Z,28.80
2022-12-18T17:22:30.647Z,31.65
2022-12-18T17:24:57.669Z,30.63
2022-12-18T17:27:26.390Z,30.17
2022-12-18T17:29:56.746Z,29.98
2022-12-18T17:32:23.365Z,31.65
2022-12-18T17:34:56.955Z,29.23
2022-12-18T17:37:25.599Z,30.25
2022-12-18T17:39:55.742Z,30.73
2022-12-18T17:42:23.003Z,29.30
2022-12-18T17:44:51.127Z,30.75
2022-12-18T17:47:17.862Z,30.73
2022-12-18T17:49:46.272Z,29.90
2022-12-18T17:52:12.953Z,30.45
2022-12-18T17:54:42.001Z,30.73
2022-12-18T17:57:11.379Z,27.80
2022-12-18T17:59:38.114Z,28.70
2022-12-18T18:02:07.256Z,28.92
2022-12-18T18:04:34.880Z,28.33
2022-12-18T18:07:01.413Z,30.40
2022-12-18T18:09:28.106Z,27.77
2022-12-18T18:12:13.312Z,28.73
2022-12-18T18:14:40.207Z,28.65
2022-12-18T18:17:07.210Z,28.10
2022-12-18T18:19:34.276Z,30.67
2022-12-18T18:22:01.627Z,27.05
2022-12-18T18:24:29.674Z,28.10
2022-12-18T18:26:56.548Z,26.33
2022-12-18T18:29:26.863Z,30.65
2022-12-18T18:31:53.815Z,32.63
2022-12-18T18:34:23.470Z,46.55
2022-12-18T18:36:50.251Z,39.70
2022-12-18T18:39:17.194Z,52.08
2022-12-18T18:41:47.863Z,28.17
2022-12-18T18:44:15.724Z,31.42
2022-12-18T18:46:42.382Z,28.30
2022-12-18T18:49:09.749Z,28.23
2022-12-18T18:51:36.319Z,27.73
2022-12-18T18:54:02.947Z,29.35
2022-12-18T18:59:16.961Z,28.38
2022-12-18T19:01:44.092Z,29.17
2022-12-18T19:04:10.900Z,27.92
2022-12-18T19:06:37.568Z,30.08
2022-12-18T19:09:06.582Z,27.63
2022-12-18T19:11:52.131Z,26.38
2022-12-18T19:14:18.847Z,31.85
2022-12-18T19:16:45.775Z,28.33
2022-12-18T19:19:13.749Z,28.13
2022-12-18T19:21:40.722Z,27.85
2022-12-18T19:24:07.899Z,26.35
2022-12-18T19:26:37.505Z,27.75
2022-12-18T19:29:06.293Z,25.17
2022-12-18T19:31:36.067Z,27.95
2022-12-18T19:34:06.653Z,27.95
2022-12-18T19:36:35.555Z,27.23
2022-12-18T19:39:07.328Z,25.83
2022-12-18T19:41:34.020Z,27.93
2022-12-18T19:44:08.091Z,26.95
2022-12-18T19:46:35.908Z,26.23
2022-12-18T19:49:02.979Z,25.75
2022-12-18T19:51:31.322Z,26.85
2022-12-18T19:54:01.071Z,25.13
2022-12-18T19:56:31.442Z,28.35
2022-12-18T19:58:58.390Z,30.42
2022-12-18T20:01:26.699Z,27.67
2022-12-18T20:03:54.662Z,26.52
2022-12-18T20:06:31.054Z,28.48
2022-12-18T20:09:01.086Z,29.10
2022-12-18T20:11:32.746Z,24.73
2022-12-18T20:14:02.244Z,25.92
2022-12-18T20:16:29.048Z,27.92
2022-12-18T20:18:57.379Z,28.65
2022-12-18T20:21:24.304Z,25.98
2022-12-18T20:23:51.288Z,26.88
2022-12-18T20:26:17.982Z,28.95
2022-12-18T20:28:44.759Z,28.25
2022-12-18T20:31:13.643Z,26.83
2022-12-18T20:33:41.704Z,28.10
2022-12-18T20:36:13.749Z,26.42
2022-12-18T20:38:41.521Z,30.20
2022-12-18T20:41:15.356Z,27.70
2022-12-18T20:43:42.391Z,28.42
2022-12-18T20:46:12.191Z,27.60
2022-12-18T20:48:39.967Z,26.83
2022-12-18T20:51:09.680Z,26.63
2022-12-18T20:53:36.583Z,28.48
2022-12-18T20:56:17.776Z,31.23
2022-12-18T20:58:48.521Z,27.13
2022-12-18T21:01:19.596Z,27.65
2022-12-18T21:03:47.087Z,28.35
2022-12-18T21:06:15.722Z,27.08
2022-12-18T21:08:42.850Z,29.88
2022-12-18T21:11:54.165Z,27.88
2022-12-18T21:14:26.360Z,27.00
2022-12-18T21:16:55.854Z,26.20
2022-12-18T21:19:25.391Z,27.25
2022-12-18T21:21:52.990Z,25.23
2022-12-18T21:24:20.157Z,28.15
2022-12-18T21:26:48.320Z,28.40
2022-12-18T21:29:17.968Z,27.35
2022-12-18T21:31:45.451Z,28.95
2022-12-18T21:34:18.715Z,28.88
2022-12-18T21:36:45.841Z,27.73
2022-12-18T21:39:14.233Z,25.73
2022-12-18T21:42:01.292Z,30.10
2022-12-18T21:44:28.081Z,28.20
2022-12-18T21:46:58.358Z,27.77
2022-12-18T21:49:30.651Z,23.75
2022-12-18T21:51:58.398Z,26.02
2022-12-18T21:54:26.501Z,29.67
2022-12-18T21:56:59.506Z,28.77
2022-12-18T21:59:40.352Z,27.70
2022-12-18T22:02:15.964Z,29.73
2022-12-18T22:04:43.890Z,27.63
2022-12-18T22:07:10.714Z,27.88
2022-12-18T22:09:38.207Z,26.92
2022-12-18T22:12:05.504Z,31.17
2022-12-18T22:14:32.396Z,29.10
2022-12-18T22:16:59.033Z,26.20
2022-12-18T22:19:26.686Z,27.55
2022-12-18T22:21:54.037Z,28.67
2022-12-18T22:24:25.574Z,28.10
2022-12-18T22:27:01.782Z,26.07
2022-12-18T22:29:47.507Z,26.30
2022-12-18T22:32:30.972Z,29.13
2022-12-18T22:35:07.210Z,27.63
2022-12-18T22:37:35.933Z,27.10
2022-12-18T22:40:05.134Z,27.83
2022-12-18T22:42:32.725Z,27.42
2022-12-18T22:45:00.385Z,29.10
2022-12-18T22:47:30.019Z,27.80
2022-12-18T22:49:58.051Z,26.58
2022-12-18T22:52:24.815Z,24.85
2022-12-18T22:54:53.379Z,24.73
2022-12-18T22:57:21.668Z,25.90
2022-12-18T22:59:49.102Z,25.48
2022-12-18T23:02:15.811Z,24.33
2022-12-18T23:04:42.469Z,23.45
2022-12-18T23:07:09.051Z,24.48
2022-12-18T23:09:37.892Z,23.00
2022-12-18T23:12:05.077Z,24.13
2022-12-18T23:14:31.874Z,24.38
2022-12-18T23:16:58.518Z,23.65
2022-12-18T23:19:25.615Z,21.75
2022-12-18T23:21:52.204Z,22.75
2022-12-18T23:24:21.358Z,24.10
2022-12-18T23:26:47.964Z,22.63
2022-12-18T23:29:14.563Z,21.63
2022-12-18T23:31:41.220Z,21.83
2022-12-18T23:34:08.818Z,20.65
2022-12-18T23:36:45.466Z,24.10
2022-12-18T23:39:22.339Z,23.20
2022-12-18T23:42:00.397Z,21.25
2022-12-18T23:44:27.415Z,22.55
2022-12-18T23:46:54.520Z,23.52
2022-12-18T23:49:21.194Z,20.83
2022-12-18T23:51:47.917Z,21.67
2022-12-18T23:54:14.516Z,22.88
2022-12-18T23:56:41.108Z,22.48
2022-12-18T23:59:07.736Z,19.67
